createdAt,value
2022-11-15T00:00:58.047Z,989.14
2022-11-15T00:01:58.144Z,989.06
2022-11-15T00:02:58.016Z,989.09
2022-11-15T00:03:58.006Z,989.11
2022-11-15T00:04:58.005Z,989.08
2022-11-15T00:05:58.035Z,989.07
2022-11-15T00:06:57.996Z,989.10
2022-11-15T00:07:58.050Z,989.09
2022-11-15T00:08:57.946Z,989.06
2022-11-15T00:09:57.946Z,989.05
2022-11-15T00:10:57.971Z,989.11
2022-11-15T00:11:57.948Z,989.05
2022-11-15T00:12:57.917Z,989.08
2022-11-15T00:13:57.908Z,989.10
2022-11-15T00:14:57.921Z,989.14
2022-11-15T00:15:58.086Z,989.09
2022-11-15T00:16:57.881Z,989.05
2022-11-15T00:17:57.859Z,989.06
2022-11-15T00:18:57.846Z,989.04
2022-11-15T00:19:57.838Z,989.13
2022-11-15T00:20:57.844Z,989.09
2022-11-15T00:21:57.827Z,989.09
2022-11-15T00:22:57.806Z,989.13
2022-11-15T00:23:57.786Z,989.07
2022-11-15T00:24:57.786Z,989.07
2022-11-15T00:25:57.776Z,989.07
2022-11-15T00:26:57.788Z,989.03
2022-11-15T00:27:57.768Z,989.08
2022-11-15T00:28:57.758Z,989.02
2022-11-15T00:29:57.768Z,989.02
2022-11-15T00:30:57.729Z,989.03
2022-11-15T00:31:57.729Z,989.00
2022-11-15T00:32:57.727Z,988.99
2022-11-15T00:33:57.718Z,988.96
2022-11-15T00:34:57.721Z,988.94
2022-11-15T00:35:57.705Z,988.97
2022-11-15T00:36:57.663Z,988.93
2022-11-15T00:37:57.647Z,988.92
2022-11-15T00:38:57.636Z,988.91
2022-11-15T00:39:57.636Z,988.86
2022-11-15T00:40:57.615Z,988.90
2022-11-15T00:41:57.629Z,988.92
2022-11-15T00:42:57.600Z,988.87
2022-11-15T00:43:57.597Z,988.87
2022-11-15T00:44:57.630Z,988.90
2022-11-15T00:45:57.599Z,988.88
2022-11-15T00:46:57.558Z,988.86
2022-11-15T00:47:57.563Z,988.88
2022-11-15T00:48:57.540Z,988.89
2022-11-15T00:49:57.548Z,988.89
2022-11-15T00:50:57.518Z,988.91
2022-11-15T00:51:57.541Z,988.87
2022-11-15T00:52:57.526Z,988.89
2022-11-15T00:53:57.537Z,988.91
2022-11-15T00:54:57.476Z,988.85
2022-11-15T00:55:57.457Z,988.86
2022-11-15T00:56:57.447Z,988.82
2022-11-15T00:57:57.447Z,988.95
2022-11-15T00:58:57.429Z,988.92
2022-11-15T00:59:57.460Z,988.92
2022-11-15T01:00:58.390Z,988.90
2022-11-15T01:01:57.419Z,988.89
2022-11-15T01:02:57.388Z,988.87
2022-11-15T01:04:01.123Z,988.88
2022-11-15T01:04:57.367Z,988.90
2022-11-15T01:05:57.382Z,988.85
2022-11-15T01:06:57.412Z,988.80
2022-11-15T01:07:57.369Z,988.80
2022-11-15T01:08:57.340Z,988.78
2022-11-15T01:09:57.339Z,988.78
2022-11-15T01:10:57.321Z,988.78
2022-11-15T01:11:57.304Z,988.82
2022-11-15T01:12:57.330Z,988.84
2022-11-15T01:13:57.289Z,988.81
2022-11-15T01:14:57.281Z,988.82
2022-11-15T01:15:57.267Z,988.84
2022-11-15T01:16:57.237Z,988.81
2022-11-15T01:17:57.237Z,988.75
2022-11-15T01:18:57.247Z,988.77
2022-11-15T01:19:57.219Z,988.80
2022-11-15T01:20:57.246Z,988.75
2022-11-15T01:21:57.187Z,988.75
2022-11-15T01:22:57.199Z,988.76
2022-11-15T01:23:57.189Z,988.78
2022-11-15T01:24:58.148Z,988.75
2022-11-15T01:25:57.177Z,988.76
2022-11-15T01:26:57.148Z,988.74
2022-11-15T01:27:57.140Z,988.76
2022-11-15T01:28:57.129Z,988.67
2022-11-15T01:29:57.142Z,988.72
2022-11-15T01:30:57.118Z,988.74
2022-11-15T01:31:57.100Z,988.75
2022-11-15T01:32:57.070Z,988.79
2022-11-15T01:33:57.068Z,988.73
2022-11-15T01:34:57.075Z,988.75
2022-11-15T01:35:57.067Z,988.77
2022-11-15T01:36:57.069Z,988.78
2022-11-15T01:37:57.028Z,988.76
2022-11-15T01:38:57.009Z,988.73
2022-11-15T01:39:57.020Z,988.74
2022-11-15T01:40:57.021Z,988.72
2022-11-15T01:41:57.010Z,988.69
2022-11-15T01:42:57.019Z,988.69
2022-11-15T01:43:56.970Z,988.66
2022-11-15T01:44:56.971Z,988.65
2022-11-15T01:45:56.950Z,988.65
2022-11-15T01:46:56.989Z,988.64
2022-11-15T01:47:56.927Z,988.61
2022-11-15T01:48:56.939Z,988.63
2022-11-15T01:49:57.567Z,988.63
2022-11-15T01:50:56.897Z,988.65
2022-11-15T01:51:56.898Z,988.60
2022-11-15T01:52:56.910Z,988.60
2022-11-15T01:53:56.858Z,988.58
2022-11-15T01:54:56.873Z,988.58
2022-11-15T01:55:56.850Z,988.56
2022-11-15T01:56:56.851Z,988.58
2022-11-15T01:57:56.823Z,988.55
2022-11-15T01:58:56.811Z,988.53
2022-11-15T01:59:56.829Z,988.57
2022-11-15T02:00:56.849Z,988.54
2022-11-15T02:01:56.780Z,988.55
2022-11-15T02:02:56.779Z,988.58
2022-11-15T02:03:56.749Z,988.58
2022-11-15T02:04:56.739Z,988.52
2022-11-15T02:05:56.737Z,988.53
2022-11-15T02:06:56.763Z,988.49
2022-11-15T02:07:56.720Z,988.51
2022-11-15T02:08:56.730Z,988.50
2022-11-15T02:09:56.709Z,988.52
2022-11-15T02:10:56.678Z,988.49
2022-11-15T02:11:56.670Z,988.43
2022-11-15T02:12:56.679Z,988.52
2022-11-15T02:13:56.648Z,988.52
2022-11-15T02:14:56.688Z,988.52
2022-11-15T02:16:00.334Z,988.52
2022-11-15T02:16:57.614Z,988.45
2022-11-15T02:17:56.631Z,988.44
2022-11-15T02:18:56.611Z,988.39
2022-11-15T02:19:56.670Z,988.38
2022-11-15T02:20:56.570Z,988.36
2022-11-15T02:21:56.570Z,988.34
2022-11-15T02:22:56.601Z,988.38
2022-11-15T02:23:56.550Z,988.40
2022-11-15T02:24:56.552Z,988.34
2022-11-15T02:25:56.534Z,988.33
2022-11-15T02:26:57.169Z,988.31
2022-11-15T02:27:56.519Z,988.29
2022-11-15T02:28:56.489Z,988.27
2022-11-15T02:29:56.499Z,988.22
2022-11-15T02:30:56.516Z,988.24
2022-11-15T02:31:56.458Z,988.18
2022-11-15T02:32:56.519Z,988.17
2022-11-15T02:33:56.439Z,988.16
2022-11-15T02:34:56.441Z,988.13
2022-11-15T02:35:56.421Z,988.17
2022-11-15T02:36:56.411Z,988.16
2022-11-15T02:37:56.611Z,988.13
2022-11-15T02:38:56.403Z,988.11
2022-11-15T02:39:56.382Z,988.14
2022-11-15T02:40:56.374Z,988.09
2022-11-15T02:41:56.370Z,988.12
2022-11-15T02:42:56.652Z,988.14
2022-11-15T02:43:56.339Z,988.08
2022-11-15T02:44:56.348Z,988.12
2022-11-15T02:45:56.335Z,988.08
2022-11-15T02:46:56.310Z,988.05
2022-11-15T02:47:56.299Z,988.00
2022-11-15T02:48:56.279Z,988.00
2022-11-15T02:49:56.280Z,988.02
2022-11-15T02:50:56.281Z,987.98
2022-11-15T02:51:56.280Z,987.94
2022-11-15T02:52:56.280Z,988.00
2022-11-15T02:53:56.261Z,987.93
2022-11-15T02:54:56.231Z,987.93
2022-11-15T02:55:56.221Z,987.89
2022-11-15T02:56:56.203Z,987.92
2022-11-15T02:57:56.196Z,987.91
2022-11-15T02:58:56.189Z,987.90
2022-11-15T02:59:56.190Z,987.89
2022-11-15T03:00:56.223Z,987.90
2022-11-15T03:01:56.140Z,987.92
2022-11-15T03:02:56.139Z,987.96
2022-11-15T03:03:56.131Z,987.93
2022-11-15T03:04:56.132Z,987.94
2022-11-15T03:05:56.129Z,988.00
2022-11-15T03:06:56.152Z,987.92
2022-11-15T03:08:01.863Z,987.97
2022-11-15T03:08:57.089Z,987.95
2022-11-15T03:09:56.071Z,987.92
2022-11-15T03:10:56.733Z,987.89
2022-11-15T03:11:56.080Z,987.94
2022-11-15T03:12:56.052Z,987.94
2022-11-15T03:13:56.029Z,987.98
2022-11-15T03:14:56.053Z,987.88
2022-11-15T03:15:56.042Z,987.86
2022-11-15T03:16:56.023Z,987.87
2022-11-15T03:17:55.993Z,987.85
2022-11-15T03:18:56.001Z,987.87
2022-11-15T03:19:55.987Z,987.88
2022-11-15T03:20:55.952Z,987.92
2022-11-15T03:21:55.951Z,987.91
2022-11-15T03:22:55.949Z,987.84
2022-11-15T03:23:55.921Z,987.90
2022-11-15T03:24:55.931Z,987.91
2022-11-15T03:25:55.899Z,987.95
2022-11-15T03:26:55.893Z,987.98
2022-11-15T03:27:55.881Z,987.98
2022-11-15T03:28:55.889Z,987.99
2022-11-15T03:29:55.871Z,987.93
2022-11-15T03:30:55.874Z,987.95
2022-11-15T03:31:55.842Z,987.98
2022-11-15T03:32:55.846Z,987.97
2022-11-15T03:33:55.822Z,987.93
2022-11-15T03:34:55.813Z,987.92
2022-11-15T03:35:55.842Z,987.94
2022-11-15T03:36:55.792Z,987.91
2022-11-15T03:37:55.873Z,987.92
2022-11-15T03:38:55.784Z,987.95
2022-11-15T03:39:55.810Z,987.91
2022-11-15T03:40:55.740Z,987.91
2022-11-15T03:41:55.740Z,987.91
2022-11-15T03:42:55.711Z,987.90
2022-11-15T03:43:55.711Z,987.92
2022-11-15T03:44:55.722Z,987.91
2022-11-15T03:45:55.714Z,987.89
2022-11-15T03:46:55.683Z,987.85
2022-11-15T03:47:55.712Z,987.87
2022-11-15T03:48:55.671Z,987.84
2022-11-15T03:49:55.663Z,987.91
2022-11-15T03:50:55.661Z,987.91
2022-11-15T03:51:55.663Z,987.86
2022-11-15T03:52:56.278Z,987.93
2022-11-15T03:53:55.624Z,987.91
2022-11-15T03:54:55.595Z,987.86
2022-11-15T03:55:55.582Z,987.86
2022-11-15T03:56:55.600Z,987.87
2022-11-15T03:57:55.600Z,987.86
2022-11-15T03:58:55.561Z,987.89
2022-11-15T03:59:55.552Z,987.86
2022-11-15T04:00:55.579Z,987.82
2022-11-15T04:01:55.521Z,987.78
2022-11-15T04:02:55.573Z,987.78
2022-11-15T04:03:55.504Z,987.73
2022-11-15T04:04:55.572Z,987.73
2022-11-15T04:05:55.493Z,987.78
2022-11-15T04:06:55.570Z,987.77
2022-11-15T04:07:55.531Z,987.77
2022-11-15T04:08:55.495Z,987.78
2022-11-15T04:09:55.463Z,987.77
2022-11-15T04:10:55.671Z,987.78
2022-11-15T04:11:55.423Z,987.78
2022-11-15T04:12:55.409Z,987.77
2022-11-15T04:13:55.402Z,987.75
2022-11-15T04:14:55.393Z,987.74
2022-11-15T04:15:55.402Z,987.72
2022-11-15T04:16:55.373Z,987.74
2022-11-15T04:17:55.374Z,987.71
2022-11-15T04:18:55.354Z,987.74
2022-11-15T04:19:55.344Z,987.68
2022-11-15T04:20:55.334Z,987.61
2022-11-15T04:21:55.343Z,987.61
2022-11-15T04:22:55.314Z,987.67
2022-11-15T04:23:55.304Z,987.64
2022-11-15T04:24:55.296Z,987.62
2022-11-15T04:25:55.285Z,987.62
2022-11-15T04:27:52.068Z,987.67
2022-11-15T04:28:52.031Z,987.70
2022-11-15T04:29:52.056Z,987.77
2022-11-15T04:30:52.046Z,987.75
2022-11-15T04:31:52.001Z,987.83
2022-11-15T04:32:52.052Z,987.79
2022-11-15T04:33:51.993Z,987.77
2022-11-15T04:34:51.988Z,987.76
2022-11-15T04:35:51.983Z,987.78
2022-11-15T04:36:51.971Z,987.73
2022-11-15T04:37:51.960Z,987.73
2022-11-15T04:38:53.729Z,987.71
2022-11-15T04:39:51.931Z,987.68
2022-11-15T04:40:52.043Z,987.70
2022-11-15T04:41:51.904Z,987.67
2022-11-15T04:42:51.918Z,987.67
2022-11-15T04:43:51.880Z,987.67
2022-11-15T04:44:51.897Z,987.64
2022-11-15T04:45:51.868Z,987.59
2022-11-15T04:46:51.909Z,987.59
2022-11-15T04:47:51.859Z,987.55
2022-11-15T04:48:58.012Z,987.58
2022-11-15T04:49:52.819Z,987.49
2022-11-15T04:50:51.798Z,987.49
2022-11-15T04:51:53.522Z,987.49
2022-11-15T04:52:51.818Z,987.50
2022-11-15T04:53:51.780Z,987.53
2022-11-15T04:54:51.788Z,987.53
2022-11-15T04:55:51.772Z,987.52
2022-11-15T04:56:51.781Z,987.57
2022-11-15T04:57:52.431Z,987.57
2022-11-15T04:58:51.770Z,987.53
2022-11-15T04:59:51.720Z,987.53
2022-11-15T05:00:51.739Z,987.51
2022-11-15T05:01:51.740Z,987.55
2022-11-15T05:02:51.699Z,987.48
2022-11-15T05:03:51.699Z,987.52
2022-11-15T05:04:51.682Z,987.52
2022-11-15T05:05:51.709Z,987.50
2022-11-15T05:06:51.694Z,987.48
2022-11-15T05:07:51.641Z,987.44
2022-11-15T05:08:51.624Z,987.46
2022-11-15T05:09:51.740Z,987.49
2022-11-15T05:10:51.664Z,987.45
2022-11-15T05:11:51.593Z,987.45
2022-11-15T05:12:51.592Z,987.45
2022-11-15T05:13:51.591Z,987.43
2022-11-15T05:14:51.613Z,987.43
2022-11-15T05:15:51.549Z,987.41
2022-11-15T05:16:51.539Z,987.39
2022-11-15T05:17:51.528Z,987.39
2022-11-15T05:18:51.586Z,987.34
2022-11-15T05:19:51.500Z,987.36
2022-11-15T05:20:53.742Z,987.26
2022-11-15T05:21:51.509Z,987.22
2022-11-15T05:22:51.491Z,987.27
2022-11-15T05:23:51.478Z,987.25
2022-11-15T05:24:51.460Z,987.20
2022-11-15T05:25:51.465Z,987.26
2022-11-15T05:26:51.473Z,987.19
2022-11-15T05:27:51.430Z,987.18
2022-11-15T05:28:51.419Z,987.17
2022-11-15T05:29:51.439Z,987.21
2022-11-15T05:30:51.411Z,987.14
2022-11-15T05:31:51.451Z,987.12
2022-11-15T05:32:51.420Z,987.14
2022-11-15T05:33:51.361Z,987.09
2022-11-15T05:34:51.376Z,987.14
2022-11-15T05:35:51.373Z,987.15
2022-11-15T05:36:51.341Z,987.16
2022-11-15T05:37:51.321Z,987.15
2022-11-15T05:38:51.351Z,987.16
2022-11-15T05:39:51.320Z,987.21
2022-11-15T05:40:51.321Z,987.20
2022-11-15T05:41:53.089Z,987.24
2022-11-15T05:42:51.276Z,987.21
2022-11-15T05:43:51.260Z,987.21
2022-11-15T05:44:51.260Z,987.17
2022-11-15T05:45:51.241Z,987.14
2022-11-15T05:46:51.261Z,987.09
2022-11-15T05:47:51.241Z,987.06
2022-11-15T05:48:51.241Z,987.05
2022-11-15T05:49:51.253Z,987.04
2022-11-15T05:50:51.196Z,987.04
2022-11-15T05:51:51.184Z,987.02
2022-11-15T05:52:51.183Z,987.04
2022-11-15T05:53:51.172Z,986.99
2022-11-15T05:54:51.164Z,987.02
2022-11-15T05:55:51.190Z,987.02
2022-11-15T05:56:51.130Z,987.06
2022-11-15T05:57:51.120Z,987.03
2022-11-15T05:58:53.506Z,987.03
2022-11-15T05:59:52.090Z,987.06
2022-11-15T06:00:51.108Z,987.13
2022-11-15T06:01:51.105Z,987.17
2022-11-15T06:02:51.100Z,987.23
2022-11-15T06:03:51.071Z,987.22
2022-11-15T06:04:51.048Z,987.23
2022-11-15T06:05:51.035Z,987.27
2022-11-15T06:06:51.099Z,987.26
2022-11-15T06:07:51.091Z,987.32
2022-11-15T06:08:51.012Z,987.32
2022-11-15T06:09:50.984Z,987.34
2022-11-15T06:10:51.081Z,987.38
2022-11-15T06:11:50.969Z,987.38
2022-11-15T06:12:51.011Z,987.38
2022-11-15T06:13:50.961Z,987.34
2022-11-15T06:14:50.944Z,987.35
2022-11-15T06:15:50.930Z,987.38
2022-11-15T06:16:50.921Z,987.37
2022-11-15T06:17:50.859Z,987.38
2022-11-15T06:18:50.929Z,987.35
2022-11-15T06:19:50.914Z,987.30
2022-11-15T06:20:51.574Z,987.38
2022-11-15T06:21:50.876Z,987.39
2022-11-15T06:22:50.864Z,987.38
2022-11-15T06:23:52.613Z,987.41
2022-11-15T06:24:50.844Z,987.41
2022-11-15T06:25:50.876Z,987.43
2022-11-15T06:26:50.821Z,987.48
2022-11-15T06:27:50.813Z,987.49
2022-11-15T06:28:50.801Z,987.49
2022-11-15T06:29:50.813Z,987.51
2022-11-15T06:30:53.345Z,987.55
2022-11-15T06:31:51.213Z,987.52
2022-11-15T06:32:50.725Z,987.54
2022-11-15T06:33:50.733Z,987.52
2022-11-15T06:34:50.769Z,987.50
2022-11-15T06:35:50.731Z,987.47
2022-11-15T06:36:50.722Z,987.52
2022-11-15T06:37:50.801Z,987.55
2022-11-15T06:38:50.728Z,987.54
2022-11-15T06:39:50.672Z,987.53
2022-11-15T06:40:50.732Z,987.53
2022-11-15T06:41:50.603Z,987.51
2022-11-15T06:42:50.591Z,987.58
2022-11-15T06:43:50.603Z,987.64
2022-11-15T06:44:50.635Z,987.62
2022-11-15T06:45:50.564Z,987.69
2022-11-15T06:46:50.583Z,987.69
2022-11-15T06:47:50.545Z,987.72
2022-11-15T06:48:50.609Z,987.70
2022-11-15T06:49:50.545Z,987.71
2022-11-15T06:50:50.535Z,987.68
2022-11-15T06:51:50.533Z,987.72
2022-11-15T06:52:50.552Z,987.63
2022-11-15T06:53:50.502Z,987.60
2022-11-15T06:54:50.547Z,987.63
2022-11-15T06:55:55.045Z,987.69
2022-11-15T06:56:51.452Z,987.68
2022-11-15T06:57:50.456Z,987.67
2022-11-15T06:58:50.456Z,987.68
2022-11-15T06:59:50.414Z,987.68
2022-11-15T07:00:51.969Z,987.65
2022-11-15T07:01:50.470Z,987.69
2022-11-15T07:02:50.398Z,987.60
2022-11-15T07:03:50.384Z,987.55
2022-11-15T07:04:50.421Z,987.57
2022-11-15T07:05:50.445Z,987.52
2022-11-15T07:06:50.449Z,987.52
2022-11-15T07:07:50.351Z,987.51
2022-11-15T07:08:50.357Z,987.46
2022-11-15T07:09:50.314Z,987.51
2022-11-15T07:10:50.382Z,987.53
2022-11-15T07:11:50.315Z,987.56
2022-11-15T07:12:50.326Z,987.51
2022-11-15T07:13:50.267Z,987.60
2022-11-15T07:14:50.287Z,987.52
2022-11-15T07:15:50.255Z,987.48
2022-11-15T07:16:50.274Z,987.48
2022-11-15T07:17:50.243Z,987.46
2022-11-15T07:18:50.275Z,987.40
2022-11-15T07:19:50.224Z,987.41
2022-11-15T07:20:50.206Z,987.39
2022-11-15T07:21:50.207Z,987.45
2022-11-15T07:22:51.146Z,987.38
2022-11-15T07:23:50.204Z,987.37
2022-11-15T07:24:50.234Z,987.38
2022-11-15T07:25:50.158Z,987.40
2022-11-15T07:26:50.154Z,987.35
2022-11-15T07:27:50.134Z,987.31
2022-11-15T07:28:50.155Z,987.31
2022-11-15T07:29:50.119Z,987.38
2022-11-15T07:30:50.114Z,987.40
2022-11-15T07:31:50.120Z,987.39
2022-11-15T07:32:50.085Z,987.39
2022-11-15T07:33:50.075Z,987.44
2022-11-15T07:34:51.850Z,987.38
2022-11-15T07:35:50.043Z,987.35
2022-11-15T07:36:50.062Z,987.35
2022-11-15T07:37:50.033Z,987.38
2022-11-15T07:38:50.014Z,987.35
2022-11-15T07:39:50.006Z,987.37
2022-11-15T07:40:50.136Z,987.40
2022-11-15T07:41:49.998Z,987.37
2022-11-15T07:42:50.985Z,987.41
2022-11-15T07:43:50.065Z,987.39
2022-11-15T07:44:50.046Z,987.40
2022-11-15T07:45:53.506Z,987.39
2022-11-15T07:46:50.957Z,987.42
2022-11-15T07:47:50.046Z,987.35
2022-11-15T07:48:49.924Z,987.41
2022-11-15T07:49:49.918Z,987.37
2022-11-15T07:50:49.944Z,987.43
2022-11-15T07:51:49.894Z,987.42
2022-11-15T07:52:49.911Z,987.42
2022-11-15T07:53:49.866Z,987.48
2022-11-15T07:54:50.219Z,987.48
2022-11-15T07:55:49.849Z,987.49
2022-11-15T07:56:49.829Z,987.46
2022-11-15T07:57:49.838Z,987.47
2022-11-15T07:58:49.823Z,987.47
2022-11-15T07:59:49.836Z,987.51
2022-11-15T08:00:49.855Z,987.55
2022-11-15T08:01:49.961Z,987.54
2022-11-15T08:02:49.928Z,987.58
2022-11-15T08:03:49.746Z,987.58
2022-11-15T08:04:49.745Z,987.65
2022-11-15T08:05:49.767Z,987.67
2022-11-15T08:06:49.775Z,987.66
2022-11-15T08:07:52.603Z,987.62
2022-11-15T08:08:49.696Z,987.57
2022-11-15T08:09:49.706Z,987.55
2022-11-15T08:10:49.904Z,987.59
2022-11-15T08:11:49.758Z,987.55
2022-11-15T08:12:49.777Z,987.54
2022-11-15T08:13:49.683Z,987.53
2022-11-15T08:14:49.688Z,987.57
2022-11-15T08:15:54.782Z,987.49
2022-11-15T08:16:50.656Z,987.50
2022-11-15T08:17:49.638Z,987.53
2022-11-15T08:18:49.668Z,987.58
2022-11-15T08:19:49.635Z,987.57
2022-11-15T08:20:50.537Z,987.58
2022-11-15T08:21:49.616Z,987.59
2022-11-15T08:22:51.257Z,987.56
2022-11-15T08:23:49.556Z,987.55
2022-11-15T08:24:49.576Z,987.50
2022-11-15T08:25:49.537Z,987.51
2022-11-15T08:26:49.589Z,987.42
2022-11-15T08:27:49.552Z,987.37
2022-11-15T08:28:49.530Z,987.34
2022-11-15T08:29:49.500Z,987.33
2022-11-15T08:30:49.485Z,987.32
2022-11-15T08:31:49.786Z,987.28
2022-11-15T08:32:49.468Z,987.28
2022-11-15T08:33:49.468Z,987.28
2022-11-15T08:34:49.479Z,987.29
2022-11-15T08:35:49.485Z,987.26
2022-11-15T08:36:49.416Z,987.20
2022-11-15T08:37:49.396Z,987.17
2022-11-15T08:38:49.386Z,987.18
2022-11-15T08:39:49.434Z,987.18
2022-11-15T08:40:49.534Z,987.18
2022-11-15T08:41:49.375Z,987.20
2022-11-15T08:42:49.398Z,987.15
2022-11-15T08:43:49.351Z,987.17
2022-11-15T08:44:49.331Z,987.19
2022-11-15T08:45:49.359Z,987.12
2022-11-15T08:46:49.419Z,987.19
2022-11-15T08:47:53.956Z,987.14
2022-11-15T08:48:50.290Z,987.08
2022-11-15T08:49:49.288Z,987.13
2022-11-15T08:50:49.273Z,987.06
2022-11-15T08:51:49.777Z,987.07
2022-11-15T08:52:49.345Z,987.08
2022-11-15T08:53:49.259Z,987.08
2022-11-15T08:54:49.241Z,987.06
2022-11-15T08:55:49.227Z,987.10
2022-11-15T08:56:49.238Z,987.05
2022-11-15T08:57:49.239Z,987.06
2022-11-15T08:58:49.219Z,987.01
2022-11-15T08:59:49.208Z,986.97
2022-11-15T09:00:49.184Z,987.03
2022-11-15T09:01:49.204Z,987.05
2022-11-15T09:02:49.141Z,986.98
2022-11-15T09:03:49.343Z,986.93
2022-11-15T09:04:49.129Z,986.93
2022-11-15T09:05:49.111Z,986.94
2022-11-15T09:06:49.186Z,986.89
2022-11-15T09:07:49.129Z,986.85
2022-11-15T09:08:49.127Z,986.80
2022-11-15T09:09:49.107Z,986.78
2022-11-15T09:10:49.077Z,986.77
2022-11-15T09:11:49.050Z,986.76
2022-11-15T09:12:49.037Z,986.76
2022-11-15T09:13:49.058Z,986.78
2022-11-15T09:14:49.007Z,986.78
2022-11-15T09:15:49.069Z,986.78
2022-11-15T09:16:49.026Z,986.76
2022-11-15T09:17:48.991Z,986.77
2022-11-15T09:18:49.000Z,986.84
2022-11-15T09:19:49.120Z,986.79
2022-11-15T09:20:48.985Z,986.77
2022-11-15T09:21:48.950Z,986.81
2022-11-15T09:22:49.626Z,986.83
2022-11-15T09:23:48.928Z,986.81
2022-11-15T09:24:48.941Z,986.85
2022-11-15T09:25:49.109Z,986.78
2022-11-15T09:26:48.892Z,986.82
2022-11-15T09:28:45.693Z,986.76
2022-11-15T09:29:45.630Z,986.75
2022-11-15T09:30:45.623Z,986.80
2022-11-15T09:31:45.643Z,986.74
2022-11-15T09:32:45.609Z,986.76
2022-11-15T09:33:45.614Z,986.76
2022-11-15T09:34:45.563Z,986.75
2022-11-15T09:35:45.576Z,986.77
2022-11-15T09:36:45.550Z,986.80
2022-11-15T09:37:45.776Z,986.74
2022-11-15T09:38:45.532Z,986.73
2022-11-15T09:39:45.522Z,986.69
2022-11-15T09:40:45.534Z,986.66
2022-11-15T09:41:50.272Z,986.66
2022-11-15T09:42:45.493Z,986.67
2022-11-15T09:43:45.514Z,986.64
2022-11-15T09:44:45.503Z,986.60
2022-11-15T09:45:45.485Z,986.61
2022-11-15T09:46:45.505Z,986.61
2022-11-15T09:47:45.463Z,986.63
2022-11-15T09:48:47.771Z,986.59
2022-11-15T09:49:45.494Z,986.58
2022-11-15T09:50:45.432Z,986.52
2022-11-15T09:51:45.404Z,986.54
2022-11-15T09:52:45.395Z,986.56
2022-11-15T09:54:30.340Z,986.53
2022-11-15T09:54:53.373Z,986.56
2022-11-15T09:55:46.376Z,986.56
2022-11-15T09:56:45.355Z,986.51
2022-11-15T09:57:45.382Z,986.57
2022-11-15T09:58:45.324Z,986.49
2022-11-15T09:59:45.835Z,986.46
2022-11-15T10:00:48.033Z,986.48
2022-11-15T10:01:45.350Z,986.51
2022-11-15T10:02:45.292Z,986.46
2022-11-15T10:03:45.323Z,986.44
2022-11-15T10:04:45.520Z,986.43
2022-11-15T10:05:45.286Z,986.39
2022-11-15T10:06:45.327Z,986.39
2022-11-15T10:07:45.258Z,986.36
2022-11-15T10:08:45.224Z,986.35
2022-11-15T10:09:45.295Z,986.35
2022-11-15T10:10:45.984Z,986.33
2022-11-15T10:11:45.296Z,986.32
2022-11-15T10:12:45.216Z,986.29
2022-11-15T10:13:45.197Z,986.25
2022-11-15T10:14:47.198Z,986.22
2022-11-15T10:15:46.151Z,986.20
2022-11-15T10:16:45.207Z,986.17
2022-11-15T10:17:45.135Z,986.11
2022-11-15T10:18:45.163Z,986.13
2022-11-15T10:19:45.113Z,986.10
2022-11-15T10:20:45.096Z,986.07
2022-11-15T10:21:45.083Z,986.07
2022-11-15T10:22:45.139Z,986.07
2022-11-15T10:23:45.073Z,986.05
2022-11-15T10:24:45.067Z,986.02
2022-11-15T10:25:45.079Z,986.06
2022-11-15T10:26:45.061Z,986.03
2022-11-15T10:27:45.986Z,986.05
2022-11-15T10:28:45.033Z,986.03
2022-11-15T10:29:45.017Z,985.92
2022-11-15T10:30:45.005Z,985.91
2022-11-15T10:31:45.031Z,985.88
2022-11-15T10:32:44.974Z,985.93
2022-11-15T10:33:44.970Z,985.93
2022-11-15T10:34:44.977Z,985.93
2022-11-15T10:35:44.954Z,986.00
2022-11-15T10:36:49.116Z,986.00
2022-11-15T10:37:46.012Z,986.01
2022-11-15T10:38:44.937Z,986.02
2022-11-15T10:39:44.905Z,986.00
2022-11-15T10:40:44.973Z,985.96
2022-11-15T10:41:44.966Z,985.92
2022-11-15T10:42:44.897Z,985.90
2022-11-15T10:43:44.959Z,985.89
2022-11-15T10:44:44.856Z,985.88
2022-11-15T10:45:44.894Z,985.87
2022-11-15T10:46:47.621Z,985.88
2022-11-15T10:47:44.834Z,985.87
2022-11-15T10:48:44.803Z,985.94
2022-11-15T10:49:45.345Z,985.86
2022-11-15T10:50:44.803Z,985.89
2022-11-15T10:51:44.825Z,985.88
2022-11-15T10:52:44.774Z,985.84
2022-11-15T10:53:44.829Z,985.83
2022-11-15T10:54:44.757Z,985.80
2022-11-15T10:55:44.756Z,985.79
2022-11-15T10:56:44.725Z,985.76
2022-11-15T10:57:44.726Z,985.71
2022-11-15T10:58:44.714Z,985.76
2022-11-15T10:59:44.796Z,985.78
2022-11-15T11:00:44.705Z,985.75
2022-11-15T11:01:44.733Z,985.73
2022-11-15T11:02:44.677Z,985.73
2022-11-15T11:03:44.671Z,985.76
2022-11-15T11:04:44.647Z,985.68
2022-11-15T11:05:44.687Z,985.68
2022-11-15T11:06:44.677Z,985.64
2022-11-15T11:07:44.628Z,985.64
2022-11-15T11:08:44.611Z,985.65
2022-11-15T11:09:44.607Z,985.60
2022-11-15T11:10:51.556Z,985.59
2022-11-15T11:11:45.747Z,985.51
2022-11-15T11:12:44.579Z,985.49
2022-11-15T11:13:44.551Z,985.53
2022-11-15T11:14:44.533Z,985.51
2022-11-15T11:15:44.614Z,985.45
2022-11-15T11:16:44.545Z,985.41
2022-11-15T11:17:44.525Z,985.49
2022-11-15T11:18:44.518Z,985.37
2022-11-15T11:19:44.525Z,985.41
2022-11-15T11:20:44.512Z,985.35
2022-11-15T11:21:44.720Z,985.35
2022-11-15T11:22:44.477Z,985.35
2022-11-15T11:23:44.490Z,985.34
2022-11-15T11:24:44.465Z,985.32
2022-11-15T11:25:44.458Z,985.30
2022-11-15T11:26:44.469Z,985.31
2022-11-15T11:27:44.467Z,985.33
2022-11-15T11:28:44.405Z,985.39
2022-11-15T11:29:44.393Z,985.39
2022-11-15T11:30:44.431Z,985.33
2022-11-15T11:31:44.483Z,985.34
2022-11-15T11:32:44.434Z,985.32
2022-11-15T11:33:44.416Z,985.34
2022-11-15T11:34:44.346Z,985.31
2022-11-15T11:35:44.347Z,985.34
2022-11-15T11:36:44.321Z,985.33
2022-11-15T11:37:44.349Z,985.31
2022-11-15T11:38:44.497Z,985.32
2022-11-15T11:39:44.398Z,985.28
2022-11-15T11:40:44.287Z,985.24
2022-11-15T11:41:44.417Z,985.28
2022-11-15T11:42:44.257Z,985.30
2022-11-15T11:43:44.286Z,985.31
2022-11-15T11:44:44.238Z,985.29
2022-11-15T11:45:47.359Z,985.26
2022-11-15T11:46:44.265Z,985.23
2022-11-15T11:47:44.260Z,985.24
2022-11-15T11:48:44.222Z,985.33
2022-11-15T11:49:44.205Z,985.26
2022-11-15T11:50:44.165Z,985.22
2022-11-15T11:51:44.186Z,985.23
2022-11-15T11:52:44.197Z,985.25
2022-11-15T11:53:44.271Z,985.26
2022-11-15T11:54:44.161Z,985.27
2022-11-15T11:55:45.119Z,985.26
2022-11-15T11:56:44.124Z,985.28
2022-11-15T11:57:45.257Z,985.30
2022-11-15T11:58:44.097Z,985.29
2022-11-15T11:59:44.075Z,985.25
2022-11-15T12:00:44.077Z,985.25
2022-11-15T12:01:44.338Z,985.22
2022-11-15T12:02:44.141Z,985.22
2022-11-15T12:03:44.047Z,985.19
2022-11-15T12:04:44.045Z,985.17
2022-11-15T12:05:44.019Z,985.23
2022-11-15T12:06:44.682Z,985.15
2022-11-15T12:07:44.050Z,985.17
2022-11-15T12:08:44.007Z,985.12
2022-11-15T12:09:44.937Z,985.13
2022-11-15T12:10:43.955Z,985.13
2022-11-15T12:11:44.046Z,985.07
2022-11-15T12:12:43.950Z,985.06
2022-11-15T12:13:44.366Z,985.06
2022-11-15T12:14:43.916Z,985.10
2022-11-15T12:15:43.958Z,985.09
2022-11-15T12:16:43.923Z,985.13
2022-11-15T12:17:43.937Z,985.09
2022-11-15T12:18:43.900Z,985.14
2022-11-15T12:19:43.911Z,985.10
2022-11-15T12:20:43.889Z,985.05
2022-11-15T12:21:43.859Z,985.05
2022-11-15T12:22:43.861Z,985.03
2022-11-15T12:23:43.873Z,985.01
2022-11-15T12:24:43.826Z,984.96
2022-11-15T12:25:43.806Z,984.94
2022-11-15T12:26:43.788Z,984.94
2022-11-15T12:27:43.787Z,984.92
2022-11-15T12:29:04.510Z,984.93
2022-11-15T12:29:44.801Z,984.86
2022-11-15T12:30:43.800Z,984.87